createdAt,value
2022-08-05T07:32:12.798Z,33.77
2022-08-05T07:42:21.761Z,31.91
2022-08-05T07:52:46.786Z,31.04
2022-08-05T08:03:15.294Z,30.79
2022-08-05T08:13:22.121Z,29.27
2022-08-05T08:24:01.408Z,29.44
2022-08-05T08:33:54.180Z,27.90
2022-08-05T08:45:18.162Z,28.32
2022-08-05T08:54:22.397Z,27.55
2022-08-05T09:04:31.212Z,27.30
2022-08-05T09:14:57.811Z,27.12
2022-08-05T09:25:01.609Z,25.86
2022-08-05T09:35:10.726Z,24.57
2022-08-05T09:46:06.056Z,22.75
2022-08-05T09:56:13.037Z,21.48
2022-08-05T10:06:20.675Z,20.85
2022-08-05T10:16:32.257Z,20.62
2022-08-05T10:26:51.320Z,19.60
2022-08-05T10:36:54.462Z,18.96
2022-08-05T10:46:57.877Z,18.01
2022-08-05T10:56:59.850Z,17.35
2022-08-05T11:07:01.647Z,15.84
2022-08-05T11:17:57.194Z,16.28
2022-08-05T11:27:51.919Z,14.58
2022-08-05T11:38:27.961Z,14.03
2022-08-05T11:48:30.055Z,13.06
2022-08-05T11:58:36.426Z,13.26
2022-08-05T12:08:55.485Z,9.99
2022-08-05T12:18:57.926Z,11.05
2022-08-05T12:29:09.490Z,9.51
2022-08-05T12:39:14.034Z,8.88
2022-08-05T12:49:18.911Z,8.30
2022-08-05T12:59:27.682Z,7.92
2022-08-05T13:10:01.014Z,9.23
2022-08-05T13:20:23.591Z,8.28
2022-08-05T13:30:37.046Z,6.96
2022-08-05T13:40:49.992Z,9.25
2022-08-05T13:51:06.826Z,8.06
2022-08-05T14:01:10.878Z,8.05
2022-08-05T14:11:20.166Z,7.78
2022-08-05T14:22:08.983Z,6.98
2022-08-05T14:32:03.971Z,6.78
2022-08-05T14:42:21.294Z,7.76
2022-08-05T14:52:50.536Z,7.36
2022-08-05T15:02:49.646Z,7.01
2022-08-05T15:13:00.880Z,8.00
2022-08-05T15:23:10.746Z,7.58
2022-08-05T15:34:04.146Z,7.40
2022-08-05T15:43:45.822Z,9.47
2022-08-05T15:53:51.972Z,9.04
2022-08-05T16:03:53.701Z,8.74
2022-08-05T16:13:55.495Z,7.83
2022-08-05T16:24:02.975Z,8.46
2022-08-05T16:34:05.753Z,9.02
2022-08-05T16:44:16.434Z,9.32
2022-08-05T16:54:24.887Z,9.32
2022-08-05T17:04:31.130Z,11.44
2022-08-05T17:14:38.289Z,14.33
2022-08-05T17:24:46.378Z,15.28
2022-08-05T17:35:00.011Z,19.16
2022-08-05T17:45:09.777Z,22.08
2022-08-05T17:55:22.753Z,23.03
2022-08-05T18:05:35.472Z,25.83
2022-08-05T18:15:41.223Z,26.75
2022-08-05T18:25:45.064Z,27.97
2022-08-05T18:35:50.038Z,28.99
2022-08-05T18:46:09.784Z,31.17
2022-08-05T18:56:13.961Z,32.22
2022-08-05T19:06:21.517Z,32.97
2022-08-05T19:16:28.430Z,33.81
2022-08-05T19:26:54.761Z,36.46
2022-08-05T19:37:15.607Z,38.13
2022-08-05T19:47:17.953Z,39.42
2022-08-05T19:57:20.178Z,41.11
2022-08-05T20:07:48.039Z,42.24
2022-08-05T20:17:50.910Z,44.01
2022-08-05T20:27:57.539Z,44.33
2022-08-05T20:38:08.088Z,44.99
2022-08-05T20:48:10.427Z,46.09
2022-08-05T20:58:15.395Z,47.20
2022-08-05T21:08:17.197Z,46.28
2022-08-05T21:18:23.270Z,47.70
2022-08-05T21:28:30.885Z,48.61
2022-08-05T21:38:37.479Z,49.37
2022-08-05T21:48:47.273Z,50.44
2022-08-05T21:58:57.371Z,51.73
2022-08-05T22:08:59.832Z,53.35
2022-08-05T22:19:02.274Z,55.28
2022-08-05T22:29:04.774Z,57.68
2022-08-05T22:39:09.697Z,60.32
2022-08-05T22:50:18.445Z,61.51
2022-08-05T22:59:45.489Z,63.00
2022-08-05T23:09:57.977Z,65.51
2022-08-05T23:20:16.303Z,67.57
2022-08-05T23:30:21.372Z,68.38
2022-08-05T23:40:28.884Z,70.68
2022-08-05T23:50:31.042Z,72.80
